Petrified Forest National Park, AZ

12:49 PM MST on April 28, 2015 (GMT -0700)
Torreon | | Change Station
CLOSE
Current Station
Personal Weather Station
Location: Show Low, AZ
Elevation: 6391 ft
Nearby Weather Stations

Elev 6391 ft 34.25 °N, 110.09 °W | Updated 1 minute ago

Clear
Clear
66.5 °F
Feels Like 66.5 °F
N
4.0
Wind Variable Wind from NNW
Gusts 9.0 mph

Today
High -- | Low -- °F
--% Chance of Precip.
Yesterday
High -- | Low -- °F
Precip. -- in
5:34 AM 7:02 PM
Waxing Gibbous, 76% visible
Pressure 30.22 in
Visibility 10.0 miles
Clouds Few 7000 ft
Scattered Clouds 9000 ft
Dew Point 34 °F
Humidity 30%
Rainfall 0.00 in
Snow Depth Not available.
UV 10 out of 12
Pollen 7.70 out of 12
Air Quality Not available.
Flu Activity Local Activity
METAR KSOW 281935Z AUTO 03010KT 10SM FEW070 SCT090 17/00 A3022 RMK AO2

More Conditions Fewer Conditions

Pressure 30.22 in
Visibility 10.0 miles
Clouds Few 7000 ft
Scattered Clouds 9000 ft
Dew Point 34 °F
Humidity 30%
Rainfall 0.00 in
Snow Depth Not available.
UV 10 out of 12
Pollen 7.70 out of 12
Air Quality Not available.
Flu Activity Local Activity
METAR KSOW 281935Z AUTO 03010KT 10SM FEW070 SCT090 17/00 A3022 RMK AO2

More Conditions Fewer Conditions

10-Day Weather Forecast

Almanac

Astronomy

Apr. 28, 2015 Rise Set
Actual Time
Civil Twilight
Nautical Twilight
Astronomical Twilight
Moon
Length of Visible Light
Length of Day
Tomorrow will be .
, % of the Moon is Illuminated

Today's Extremes

State Highs State Lows

Community

WunderPhotos

Upload Photos

1,817,741 photos uploaded!

WunderBlogs® & News

Nearby

Air Quality

  Air Quality AQ Index Pollutant
Not available.

Snow Depth

Station Depth Elevation

Earthquake Activity

City Distance Mag. Time & Date
Minimum magnitude displayed is 2.5.

Coastal Water Temperatures

Place Temperature

Stations

Nearby Weather Stations

Station Location Temp. Windchill Dew Point Humidity Wind Precip. Elev Updated Type